createdAt,value
2023-03-14T00:01:24.296Z,12.70
2023-03-14T00:03:54.532Z,10.50
2023-03-14T00:06:25.691Z,11.60
2023-03-14T00:08:55.859Z,11.70
2023-03-14T00:11:27.270Z,13.20
2023-03-14T00:13:57.411Z,13.10
2023-03-14T00:16:30.648Z,11.50
2023-03-14T00:19:02.495Z,11.60
2023-03-14T00:21:32.919Z,9.70
2023-03-14T00:24:03.072Z,12.50
2023-03-14T00:26:33.262Z,14.00
2023-03-14T00:31:37.193Z,12.90
2023-03-14T00:34:07.390Z,14.20
2023-03-14T00:36:37.619Z,10.10
2023-03-14T00:39:07.726Z,13.30
2023-03-14T00:41:37.808Z,10.40
2023-03-14T00:46:41.030Z,13.30
2023-03-14T00:54:14.264Z,9.50
2023-03-14T00:56:44.315Z,10.10
2023-03-14T01:01:47.734Z,11.60
2023-03-14T01:06:49.593Z,11.80
2023-03-14T01:11:50.450Z,13.40
2023-03-14T01:16:53.505Z,11.70
2023-03-14T01:19:23.607Z,9.60
2023-03-14T01:21:53.685Z,9.90
2023-03-14T01:31:57.639Z,11.40
2023-03-14T01:36:57.973Z,10.10
2023-03-14T01:39:29.476Z,10.10
2023-03-14T01:44:30.720Z,12.10
2023-03-14T01:47:03.460Z,13.00
2023-03-14T01:49:36.112Z,13.90
2023-03-14T01:52:09.504Z,13.10
2023-03-14T01:54:42.066Z,12.30
2023-03-14T01:57:16.646Z,10.50
2023-03-14T01:59:52.591Z,14.30
2023-03-14T02:02:26.473Z,13.00
2023-03-14T02:04:57.129Z,12.30
2023-03-14T02:07:34.201Z,13.50
2023-03-14T02:10:06.497Z,11.30
2023-03-14T02:12:37.834Z,12.90
2023-03-14T02:15:09.056Z,10.90
2023-03-14T02:17:44.754Z,11.40
2023-03-14T02:20:35.017Z,11.30
2023-03-14T02:23:05.512Z,11.80
2023-03-14T02:25:44.636Z,10.10
2023-03-14T02:28:18.166Z,11.40
2023-03-14T02:30:48.607Z,8.50
2023-03-14T02:33:22.276Z,13.90
2023-03-14T02:35:57.302Z,9.90
2023-03-14T02:38:34.115Z,9.60
2023-03-14T02:41:04.363Z,11.40
2023-03-14T02:43:37.261Z,10.40
2023-03-14T02:46:09.920Z,10.10
2023-03-14T02:48:44.585Z,13.10
2023-03-14T02:51:15.107Z,11.60
2023-03-14T02:58:48.746Z,12.90
2023-03-14T03:03:49.188Z,10.30
2023-03-14T03:08:50.529Z,10.10
2023-03-14T03:11:20.684Z,10.00
2023-03-14T03:13:53.563Z,11.30
2023-03-14T03:16:23.641Z,9.70
2023-03-14T03:18:53.815Z,13.30
2023-03-14T03:26:26.785Z,9.40
2023-03-14T03:28:59.536Z,11.30
2023-03-14T03:31:29.766Z,12.00
2023-03-14T03:34:01.010Z,11.20
2023-03-14T03:36:31.437Z,11.20
2023-03-14T03:44:04.778Z,11.00
2023-03-14T03:46:34.903Z,9.20
2023-03-14T03:59:09.481Z,11.10
2023-03-14T04:01:39.503Z,9.60
2023-03-14T04:04:09.939Z,12.30
2023-03-14T04:06:42.971Z,9.00
2023-03-14T04:11:43.732Z,11.30
2023-03-14T04:14:16.521Z,9.60
2023-03-14T04:16:46.835Z,9.90
2023-03-14T04:19:18.077Z,10.90
2023-03-14T04:21:48.552Z,10.60
2023-03-14T04:29:22.022Z,11.10
2023-03-14T04:31:52.068Z,12.30
2023-03-14T04:34:22.182Z,9.50
2023-03-14T04:39:22.597Z,13.10
2023-03-14T04:41:53.190Z,8.70
2023-03-14T04:44:25.845Z,12.50
2023-03-14T04:51:56.621Z,9.50
2023-03-14T04:56:56.965Z,13.30
2023-03-14T04:59:29.923Z,11.10
2023-03-14T05:04:31.220Z,10.90
2023-03-14T05:07:01.378Z,12.00
2023-03-14T05:09:31.633Z,12.30
2023-03-14T05:14:34.606Z,9.30
2023-03-14T05:19:36.182Z,9.20
2023-03-14T05:24:36.947Z,9.70
2023-03-14T05:27:07.286Z,9.30
2023-03-14T05:29:39.973Z,12.50
2023-03-14T05:39:41.032Z,12.70
2023-03-14T05:42:11.226Z,11.90
2023-03-14T05:44:43.928Z,9.80
2023-03-14T05:47:14.092Z,11.80
2023-03-14T05:49:44.142Z,12.60
2023-03-14T05:54:44.501Z,12.50
2023-03-14T06:02:18.007Z,9.40
2023-03-14T06:04:48.341Z,9.10
2023-03-14T06:09:48.667Z,9.50
2023-03-14T06:14:51.843Z,13.30
2023-03-14T06:19:52.294Z,11.90
2023-03-14T06:24:53.310Z,9.00
2023-03-14T06:29:56.366Z,8.50
2023-03-14T06:34:58.351Z,11.00
2023-03-14T06:39:58.875Z,8.20
2023-03-14T06:45:02.164Z,11.00
2023-03-14T06:55:03.095Z,10.20
2023-03-14T07:00:07.054Z,9.10
2023-03-14T07:05:14.187Z,7.20
2023-03-14T07:07:44.175Z,10.40
2023-03-14T07:10:15.072Z,9.00
2023-03-14T07:12:45.216Z,11.20
2023-03-14T07:15:19.500Z,7.30
2023-03-14T07:22:52.158Z,8.70
2023-03-14T07:37:56.873Z,6.50
2023-03-14T07:42:58.621Z,10.10
2023-03-14T07:45:31.047Z,8.80
2023-03-14T07:50:33.538Z,10.40
2023-03-14T08:00:37.223Z,10.50
2023-03-14T08:05:39.514Z,6.60
2023-03-14T08:08:09.816Z,9.10
2023-03-14T08:13:11.542Z,11.00
2023-03-14T08:15:43.995Z,8.80
2023-03-14T08:23:14.595Z,9.60
2023-03-14T08:30:48.372Z,10.50
2023-03-14T08:33:18.493Z,10.10
2023-03-14T08:35:48.669Z,10.30
2023-03-14T08:38:18.874Z,9.80
2023-03-14T08:43:22.113Z,7.30
2023-03-14T08:45:54.838Z,8.90
2023-03-14T08:48:24.936Z,7.00
2023-03-14T08:50:55.057Z,9.80
2023-03-14T08:55:58.735Z,10.20
2023-03-14T08:58:28.844Z,6.40
2023-03-14T09:01:01.692Z,6.90
2023-03-14T09:03:31.741Z,10.30
2023-03-14T09:06:07.011Z,6.40
2023-03-14T09:13:44.274Z,6.80
2023-03-14T09:16:16.956Z,8.50
2023-03-14T09:18:47.106Z,7.10
2023-03-14T09:23:47.754Z,10.00
2023-03-14T09:26:17.852Z,9.60
2023-03-14T09:31:20.903Z,9.00
2023-03-14T09:36:21.371Z,10.90
2023-03-14T09:41:27.449Z,9.20
2023-03-14T09:44:04.695Z,7.60
2023-03-14T09:46:40.905Z,9.60
2023-03-14T09:49:16.306Z,11.20
2023-03-14T09:51:48.087Z,8.20
2023-03-14T09:54:33.943Z,7.60
2023-03-14T09:57:04.560Z,9.00
2023-03-14T10:02:18.558Z,10.00
2023-03-14T10:04:50.149Z,10.10
2023-03-14T10:07:23.200Z,10.20
2023-03-14T10:09:54.948Z,11.90
2023-03-14T10:12:34.979Z,10.90
2023-03-14T10:15:08.115Z,9.90
2023-03-14T10:17:46.874Z,7.90
2023-03-14T10:20:34.158Z,9.60
2023-03-14T10:23:06.392Z,10.70
2023-03-14T10:25:41.580Z,11.80
2023-03-14T10:28:28.091Z,11.80
2023-03-14T10:30:59.082Z,11.80
2023-03-14T10:33:33.699Z,12.10
2023-03-14T10:36:06.839Z,12.20
2023-03-14T10:38:39.148Z,12.30
2023-03-14T10:41:21.377Z,12.20
2023-03-14T10:43:55.655Z,12.00
2023-03-14T10:46:29.530Z,12.30
2023-03-14T10:49:02.579Z,10.60
2023-03-14T10:51:34.583Z,13.90
2023-03-14T10:54:06.839Z,13.20
2023-03-14T10:56:39.688Z,11.40
2023-03-14T10:59:16.572Z,11.40
2023-03-14T11:01:52.211Z,10.50
2023-03-14T11:04:43.789Z,13.50
2023-03-14T11:07:18.553Z,12.60
2023-03-14T11:09:54.345Z,12.20
2023-03-14T11:12:45.651Z,12.80
2023-03-14T11:15:22.526Z,10.80
2023-03-14T11:18:11.249Z,9.00
2023-03-14T11:20:50.098Z,9.60
2023-03-14T11:23:24.797Z,11.20
2023-03-14T11:26:03.792Z,7.90
2023-03-14T11:28:39.956Z,9.60
2023-03-14T11:31:18.644Z,9.90
2023-03-14T11:33:56.235Z,11.90
2023-03-14T11:36:35.271Z,7.80
2023-03-14T11:39:23.838Z,11.00
2023-03-14T11:42:04.732Z,12.90
2023-03-14T11:44:40.855Z,11.50
2023-03-14T11:47:15.653Z,11.20
2023-03-14T11:49:51.323Z,12.40
2023-03-14T11:52:32.762Z,11.60
2023-03-14T11:55:08.952Z,12.10
2023-03-14T12:00:20.265Z,13.70
2023-03-14T12:03:00.266Z,12.70
2023-03-14T12:05:44.112Z,13.90
2023-03-14T12:08:42.195Z,13.50
2023-03-14T12:11:28.353Z,10.20
2023-03-14T12:16:44.441Z,7.80
2023-03-14T12:19:34.714Z,10.40
2023-03-14T12:22:40.194Z,12.60
2023-03-14T12:25:20.448Z,10.60
2023-03-14T12:28:08.560Z,12.30
2023-03-14T12:30:41.193Z,11.30
2023-03-14T12:33:38.234Z,12.90
2023-03-14T12:36:52.668Z,13.30
2023-03-14T12:39:29.123Z,11.80
2023-03-14T12:42:08.242Z,9.60
2023-03-14T12:44:46.649Z,8.70
2023-03-14T12:47:46.377Z,11.10
2023-03-14T12:50:23.725Z,10.90
2023-03-14T12:53:11.830Z,10.80
2023-03-14T12:55:50.809Z,12.40
2023-03-14T12:58:30.928Z,11.70
2023-03-14T13:01:03.962Z,9.40
2023-03-14T13:03:46.473Z,12.40
2023-03-14T13:08:48.541Z,12.70
2023-03-14T13:11:22.252Z,11.70
2023-03-14T13:14:01.328Z,12.20
2023-03-14T13:16:32.461Z,8.20
2023-03-14T13:19:04.569Z,10.90
2023-03-14T13:21:39.533Z,11.10
2023-03-14T13:24:22.682Z,11.80
2023-03-14T13:26:53.001Z,8.60
2023-03-14T13:29:28.038Z,11.20
2023-03-14T13:34:33.654Z,11.20
2023-03-14T13:39:36.911Z,12.80
2023-03-14T13:44:43.332Z,12.60
2023-03-14T13:47:18.498Z,9.30
2023-03-14T13:49:49.339Z,11.60
2023-03-14T13:52:27.704Z,11.60
2023-03-14T13:57:28.375Z,11.40
2023-03-14T14:00:11.481Z,12.50
2023-03-14T14:02:43.040Z,9.70
2023-03-14T14:05:14.981Z,12.40
2023-03-14T14:07:47.671Z,10.70
2023-03-14T14:10:18.492Z,10.60
2023-03-14T14:12:53.358Z,12.30
2023-03-14T14:15:30.343Z,10.50
2023-03-14T14:20:35.942Z,10.40
2023-03-14T14:23:14.798Z,10.40
2023-03-14T14:25:53.252Z,8.60
2023-03-14T14:28:29.425Z,10.30
2023-03-14T14:31:21.158Z,12.10
2023-03-14T14:33:58.672Z,10.40
2023-03-14T14:36:32.511Z,8.60
2023-03-14T14:39:05.916Z,10.80
2023-03-14T14:41:38.760Z,12.60
2023-03-14T14:44:09.152Z,11.20
2023-03-14T14:49:16.690Z,10.70
2023-03-14T14:51:51.475Z,10.70
2023-03-14T14:54:23.864Z,8.90
2023-03-14T14:56:56.298Z,11.80
2023-03-14T14:59:29.967Z,10.50
2023-03-14T15:02:05.161Z,10.30
2023-03-14T15:09:36.554Z,9.00
2023-03-14T15:12:07.299Z,8.00
2023-03-14T15:17:14.281Z,11.60
2023-03-14T15:22:17.432Z,9.90
2023-03-14T15:27:19.730Z,11.00
2023-03-14T15:32:23.100Z,8.60
2023-03-14T15:34:53.245Z,11.60
2023-03-14T15:37:23.386Z,11.10
2023-03-14T15:39:53.696Z,11.50
2023-03-14T15:44:54.126Z,8.40
2023-03-14T15:49:58.870Z,6.70
2023-03-14T15:52:32.378Z,11.40
2023-03-14T16:00:05.400Z,11.00
2023-03-14T16:02:41.315Z,8.80
2023-03-14T16:05:12.622Z,7.80
2023-03-14T16:10:15.744Z,9.90
2023-03-14T16:12:46.160Z,9.40
2023-03-14T16:17:50.063Z,8.20
2023-03-14T16:22:51.170Z,7.90
2023-03-14T16:28:08.477Z,7.90
2023-03-14T16:33:13.789Z,9.60
2023-03-14T16:38:14.231Z,8.10
2023-03-14T16:40:44.651Z,10.00
2023-03-14T16:48:38.636Z,9.50
2023-03-14T16:56:11.351Z,10.10
2023-03-14T16:58:41.834Z,10.10
2023-03-14T17:01:13.686Z,9.50
2023-03-14T17:03:48.399Z,10.50
2023-03-14T17:06:19.884Z,7.70
2023-03-14T17:13:50.650Z,11.30
2023-03-14T17:18:59.955Z,9.70
2023-03-14T17:21:30.089Z,10.80
2023-03-14T17:24:00.167Z,8.10
2023-03-14T17:31:30.952Z,8.30
2023-03-14T17:34:03.821Z,10.40
2023-03-14T17:36:34.005Z,7.80
2023-03-14T17:39:04.200Z,7.50
2023-03-14T17:41:34.213Z,7.30
2023-03-14T17:44:04.460Z,9.90
2023-03-14T17:46:34.593Z,10.50
2023-03-14T17:49:07.464Z,10.80
2023-03-14T17:51:37.654Z,10.30
2023-03-14T17:56:38.416Z,7.70
2023-03-14T17:59:08.722Z,8.00
2023-03-14T18:04:14.001Z,8.50
2023-03-14T18:06:44.950Z,8.60
2023-03-14T18:09:15.198Z,8.50
2023-03-14T18:14:16.490Z,6.30
2023-03-14T18:19:22.474Z,8.30
2023-03-14T18:21:53.812Z,6.00
2023-03-14T18:24:23.694Z,8.30
2023-03-14T18:26:53.844Z,9.80
2023-03-14T18:31:55.175Z,9.30
2023-03-14T18:34:28.558Z,9.20
2023-03-14T18:36:58.772Z,8.50
2023-03-14T18:39:28.977Z,8.90
2023-03-14T18:41:59.025Z,9.40
2023-03-14T18:46:59.892Z,10.00
2023-03-14T18:49:34.996Z,7.30
2023-03-14T18:57:07.120Z,9.70
2023-03-14T18:59:37.316Z,5.20
2023-03-14T19:02:07.916Z,9.10
2023-03-14T19:04:40.639Z,7.50
2023-03-14T19:07:10.692Z,9.30
2023-03-14T19:09:42.845Z,8.90
2023-03-14T19:12:13.822Z,9.60
2023-03-14T19:14:43.966Z,9.00
2023-03-14T19:19:46.969Z,9.20
2023-03-14T19:22:17.148Z,8.20
2023-03-14T19:24:47.288Z,7.50
2023-03-14T19:27:17.357Z,9.50
2023-03-14T19:29:47.461Z,9.30
2023-03-14T19:32:18.947Z,8.90
2023-03-14T19:34:51.744Z,5.30
2023-03-14T19:37:22.727Z,8.00
2023-03-14T19:39:53.091Z,9.20
2023-03-14T19:42:23.235Z,8.50
2023-03-14T19:44:53.615Z,8.10
2023-03-14T19:47:23.804Z,8.90
2023-03-14T19:49:58.317Z,5.20
2023-03-14T19:52:28.465Z,6.00
2023-03-14T19:54:58.630Z,3.40
2023-03-14T19:57:28.709Z,6.50
2023-03-14T19:59:59.546Z,6.60
2023-03-14T20:05:06.216Z,8.20
2023-03-14T20:07:38.393Z,8.20
2023-03-14T20:10:09.895Z,3.80
2023-03-14T20:12:40.158Z,6.50
2023-03-14T20:15:14.851Z,6.40
2023-03-14T20:20:19.040Z,5.80
2023-03-14T20:25:22.791Z,6.20
2023-03-14T20:27:54.783Z,6.30
2023-03-14T20:32:55.646Z,3.80
2023-03-14T20:35:28.500Z,6.40
2023-03-14T20:37:59.074Z,8.00
2023-03-14T20:40:31.857Z,6.00
2023-03-14T20:48:02.992Z,7.80
2023-03-14T20:50:35.867Z,8.00
2023-03-14T20:53:06.037Z,7.40
2023-03-14T21:00:36.896Z,8.00
2023-03-14T21:03:07.472Z,6.50
2023-03-14T21:05:44.304Z,6.30
2023-03-14T21:08:14.458Z,8.00
2023-03-14T21:10:44.854Z,7.20
2023-03-14T21:13:15.002Z,7.90
2023-03-14T21:15:45.415Z,7.40
2023-03-14T21:18:16.281Z,6.80
2023-03-14T21:20:49.167Z,7.50
2023-03-14T21:23:19.158Z,3.60
2023-03-14T21:25:49.192Z,7.60
2023-03-14T21:28:19.292Z,7.30
2023-03-14T21:30:49.739Z,6.80
2023-03-14T21:35:54.998Z,6.70
2023-03-14T21:38:25.091Z,6.50
2023-03-14T21:40:58.672Z,6.50
2023-03-14T21:43:28.962Z,7.00
2023-03-14T21:45:59.043Z,6.70
2023-03-14T21:48:29.656Z,8.30
2023-03-14T21:51:02.335Z,7.00
2023-03-14T21:58:35.659Z,6.30
2023-03-14T22:01:07.491Z,5.30
2023-03-14T22:03:37.967Z,7.60
2023-03-14T22:06:11.251Z,6.90
2023-03-14T22:13:42.008Z,8.60
2023-03-14T22:16:12.272Z,8.00
2023-03-14T22:18:42.454Z,7.50
2023-03-14T22:21:15.386Z,7.00
2023-03-14T22:23:45.481Z,5.20
2023-03-14T22:28:45.792Z,7.00
2023-03-14T22:33:46.231Z,7.40
2023-03-14T22:36:18.899Z,7.20
2023-03-14T22:43:50.343Z,7.20
2023-03-14T22:46:20.524Z,8.20
2023-03-14T22:51:25.739Z,9.10
2023-03-14T22:53:55.748Z,9.50
2023-03-14T22:58:56.132Z,7.80
2023-03-14T23:06:29.858Z,8.80
2023-03-14T23:21:43.854Z,7.50
2023-03-14T23:24:13.932Z,7.30
2023-03-14T23:26:46.295Z,6.60
2023-03-14T23:29:16.734Z,5.70
2023-03-14T23:31:46.932Z,3.80
2023-03-14T23:36:49.946Z,5.80
2023-03-14T23:39:20.108Z,6.30
2023-03-14T23:44:20.912Z,6.70
2023-03-14T23:46:51.750Z,4.90
2023-03-14T23:51:54.850Z,6.60
